sensor_id;sensor_type;location;lat;lon;timestamp;pressure;altitude;pressure_sealevel;temperature;humidity
61880;BME280;47817;52.798;27.544;2023-02-18T00:01:58;1007.5;;;5.5;91.5
61880;BME280;47817;52.798;27.544;2023-02-18T00:06:10;1007.4;;;5.6;91.4
61880;BME280;47817;52.798;27.544;2023-02-18T00:11:42;1007.2;;;5.6;91.5
61880;BME280;47817;52.798;27.544;2023-02-18T00:16:58;1007;;;5.6;91.4
61880;BME280;47817;52.798;27.544;2023-02-18T00:21:52;1006.8;;;5.7;91.5
61880;BME280;47817;52.798;27.544;2023-02-18T00:26:58;1006.7;;;5.7;91.5
61880;BME280;47817;52.798;27.544;2023-02-18T00:31:22;1006.5;;;5.7;91.5
61880;BME280;47817;52.798;27.544;2023-02-18T00:36:44;1006.4;;;5.7;91.5
61880;BME280;47817;52.798;27.544;2023-02-18T00:41:58;1006.3;;;5.7;91.7
61880;BME280;47817;52.798;27.544;2023-02-18T00:46:38;1006.2;;;5.7;91.9
61880;BME280;47817;52.798;27.544;2023-02-18T00:51:58;1006;;;5.7;92
61880;BME280;47817;52.798;27.544;2023-02-18T00:56:22;1005.8;;;5.7;92.2
61880;BME280;47817;52.798;27.544;2023-02-18T01:01:42;1005.6;;;5.7;92.3
61880;BME280;47817;52.798;27.544;2023-02-18T01:06:58;1005.5;;;5.7;92.3
61880;BME280;47817;52.798;27.544;2023-02-18T01:11:38;1005.3;;;5.8;92.4
61880;BME280;47817;52.798;27.544;2023-02-18T01:17:00;1005.2;;;5.8;92.5
61880;BME280;47817;52.798;27.544;2023-02-18T01:21:24;1005;;;5.8;92.7
61880;BME280;47817;52.798;27.544;2023-02-18T01:26:42;1004.9;;;5.8;93.1
61880;BME280;47817;52.798;27.544;2023-02-18T01:31:24;1004.7;;;5.8;93.5
61880;BME280;47817;52.798;27.544;2023-02-18T01:37:00;1004.5;;;5.8;94.1
61880;BME280;47817;52.798;27.544;2023-02-18T01:41:50;1004.2;;;5.8;94
61880;BME280;47817;52.798;27.544;2023-02-18T01:46:12;1004.1;;;5.8;93.9
61880;BME280;47817;52.798;27.544;2023-02-18T01:51:45;1004;;;5.8;94.1
61880;BME280;47817;52.798;27.544;2023-02-18T01:56:11;1003.9;;;5.8;94.7
61880;BME280;47817;52.798;27.544;2023-02-18T02:02:00;1003.8;;;5.8;95
61880;BME280;47817;52.798;27.544;2023-02-18T02:06:24;1003.6;;;5.8;95.8
61880;BME280;47817;52.798;27.544;2023-02-18T02:11:13;1003.6;;;5.8;96.3
61880;BME280;47817;52.798;27.544;2023-02-18T02:16:44;1003.5;;;5.8;96.7
61880;BME280;47817;52.798;27.544;2023-02-18T02:21:38;1003.4;;;5.8;97.2
61880;BME280;47817;52.798;27.544;2023-02-18T02:26:50;1003.3;;;5.8;97.6
61880;BME280;47817;52.798;27.544;2023-02-18T02:31:27;1003.3;;;5.8;98
61880;BME280;47817;52.798;27.544;2023-02-18T02:36:24;1003.2;;;5.8;98.2
61880;BME280;47817;52.798;27.544;2023-02-18T02:41:32;1003.3;;;5.8;98.3
61880;BME280;47817;52.798;27.544;2023-02-18T02:46:30;1003.3;;;5.8;98.9
61880;BME280;47817;52.798;27.544;2023-02-18T02:51:58;1003.4;;;5.9;99.5
61880;BME280;47817;52.798;27.544;2023-02-18T02:56:38;1003.6;;;6;100
61880;BME280;47817;52.798;27.544;2023-02-18T03:01:19;1003.6;;;6;100
61880;BME280;47817;52.798;27.544;2023-02-18T03:06:48;1003.6;;;6.1;100
61880;BME280;47817;52.798;27.544;2023-02-18T03:11:40;1003.8;;;6.2;100
61880;BME280;47817;52.798;27.544;2023-02-18T03:17:01;1003.8;;;6.2;100
61880;BME280;47817;52.798;27.544;2023-02-18T03:21:50;1003.8;;;6.2;100
61880;BME280;47817;52.798;27.544;2023-02-18T03:26:10;1003.9;;;6.2;100
61880;BME280;47817;52.798;27.544;2023-02-18T03:31:42;1003.9;;;6.3;99.8
61880;BME280;47817;52.798;27.544;2023-02-18T03:36:24;1003.8;;;6.2;99.4
61880;BME280;47817;52.798;27.544;2023-02-18T03:41:46;1003.8;;;6.2;99.1
61880;BME280;47817;52.798;27.544;2023-02-18T03:46:50;1003.8;;;6.3;98.9
61880;BME280;47817;52.798;27.544;2023-02-18T03:51:10;1003.8;;;6.2;98.8
61880;BME280;47817;52.798;27.544;2023-02-18T03:56:44;1003.8;;;6.2;98.8
61880;BME280;47817;52.798;27.544;2023-02-18T04:01:24;1003.9;;;6.2;99
61880;BME280;47817;52.798;27.544;2023-02-18T04:07:00;1003.8;;;6.2;99.4
61880;BME280;47817;52.798;27.544;2023-02-18T04:11:36;1003.8;;;6.2;99.3
61880;BME280;47817;52.798;27.544;2023-02-18T04:16:38;1003.8;;;6.2;98.9
61880;BME280;47817;52.798;27.544;2023-02-18T04:21:36;1003.9;;;6.2;97.9
61880;BME280;47817;52.798;27.544;2023-02-18T04:26:22;1003.8;;;6.2;96.9
61880;BME280;47817;52.798;27.544;2023-02-18T04:31:58;1003.8;;;6.3;95.2
61880;BME280;47817;52.798;27.544;2023-02-18T04:36:36;1004;;;6.3;94
61880;BME280;47817;52.798;27.544;2023-02-18T04:41:22;1003.9;;;6.3;92.9
61880;BME280;47817;52.798;27.544;2023-02-18T04:46:30;1003.9;;;6.3;93.3
61880;BME280;47817;52.798;27.544;2023-02-18T04:51:24;1004;;;6.2;93.1
61880;BME280;47817;52.798;27.544;2023-02-18T04:56:58;1004;;;6.2;93.1
61880;BME280;47817;52.798;27.544;2023-02-18T05:01:58;1004;;;6.1;93.3
61880;BME280;47817;52.798;27.544;2023-02-18T05:06:10;1004;;;6;93.7
61880;BME280;47817;52.798;27.544;2023-02-18T05:11:36;1003.9;;;6;93.7
61880;BME280;47817;52.798;27.544;2023-02-18T05:16:58;1003.9;;;5.9;94.2
61880;BME280;47817;52.798;27.544;2023-02-18T05:21:46;1003.9;;;5.9;94.2
61880;BME280;47817;52.798;27.544;2023-02-18T05:26:38;1003.9;;;5.8;94.7
61880;BME280;47817;52.798;27.544;2023-02-18T05:31:24;1004;;;5.7;95
61880;BME280;47817;52.798;27.544;2023-02-18T05:36:44;1004;;;5.7;94.8
61880;BME280;47817;52.798;27.544;2023-02-18T05:41:22;1004;;;5.7;94.8
61880;BME280;47817;52.798;27.544;2023-02-18T05:47:00;1004.1;;;5.7;95
61880;BME280;47817;52.798;27.544;2023-02-18T05:51:36;1004;;;5.7;95
61880;BME280;47817;52.798;27.544;2023-02-18T05:57:00;1004;;;5.7;95.1
61880;BME280;47817;52.798;27.544;2023-02-18T06:01:42;1004.1;;;5.5;96.7
61880;BME280;47817;52.798;27.544;2023-02-18T06:06:24;1004;;;5.3;98.9
61880;BME280;47817;52.798;27.544;2023-02-18T06:12:00;1004;;;5.3;99.9
61880;BME280;47817;52.798;27.544;2023-02-18T06:16:22;1003.9;;;5.3;100
61880;BME280;47817;52.798;27.544;2023-02-18T06:22:00;1004;;;5.3;100
61880;BME280;47817;52.798;27.544;2023-02-18T06:26:44;1004;;;5.5;100
61880;BME280;47817;52.798;27.544;2023-02-18T06:31:22;1004;;;5.6;100
61880;BME280;47817;52.798;27.544;2023-02-18T06:36:58;1004;;;5.7;99.8
61880;BME280;47817;52.798;27.544;2023-02-18T06:41:10;1004.1;;;5.8;98.9
61880;BME280;47817;52.798;27.544;2023-02-18T06:46:58;1004;;;5.8;98.2
61880;BME280;47817;52.798;27.544;2023-02-18T06:51:30;1004.1;;;5.9;97.4
61880;BME280;47817;52.798;27.544;2023-02-18T06:56:22;1004.2;;;5.9;96.2
61880;BME280;47817;52.798;27.544;2023-02-18T07:01:56;1004.2;;;6;96.1
61880;BME280;47817;52.798;27.544;2023-02-18T07:06:36;1004.2;;;5.9;95.2
61880;BME280;47817;52.798;27.544;2023-02-18T07:11:58;1004.2;;;6;95.2
61880;BME280;47817;52.798;27.544;2023-02-18T07:16:28;1004.2;;;6;94.1
61880;BME280;47817;52.798;27.544;2023-02-18T07:21:22;1004.2;;;6;93.8
61880;BME280;47817;52.798;27.544;2023-02-18T07:26:48;1004.2;;;6;93.4
61880;BME280;47817;52.798;27.544;2023-02-18T07:31:10;1004.2;;;6.1;93.2
61880;BME280;47817;52.798;27.544;2023-02-18T07:36:56;1004.3;;;6.1;91.9
61880;BME280;47817;52.798;27.544;2023-02-18T07:41:40;1004.2;;;6.2;91.6
61880;BME280;47817;52.798;27.544;2023-02-18T07:46:10;1004.2;;;6.2;91.8
61880;BME280;47817;52.798;27.544;2023-02-18T07:51:56;1004.3;;;6.1;91.2
61880;BME280;47817;52.798;27.544;2023-02-18T07:56:22;1004.2;;;6.1;90.5
61880;BME280;47817;52.798;27.544;2023-02-18T08:01:58;1004.4;;;6.1;89.8
61880;BME280;47817;52.798;27.544;2023-02-18T08:06:24;1004.4;;;6.2;89
61880;BME280;47817;52.798;27.544;2023-02-18T08:11:10;1004.4;;;6.3;88
61880;BME280;47817;52.798;27.544;2023-02-18T08:16:58;1004.4;;;6.4;87.4
61880;BME280;47817;52.798;27.544;2023-02-18T08:21:10;1004.4;;;6.5;86.7
61880;BME280;47817;52.798;27.544;2023-02-18T08:26:58;1004.4;;;6.6;86.6
61880;BME280;47817;52.798;27.544;2023-02-18T08:31:15;1004.4;;;6.7;86.3
61880;BME280;47817;52.798;27.544;2023-02-18T08:36:36;1004.5;;;6.7;85
61880;BME280;47817;52.798;27.544;2023-02-18T08:41:56;1004.4;;;6.6;85.6
61880;BME280;47817;52.798;27.544;2023-02-18T08:46:36;1004.6;;;6.5;84.4
61880;BME280;47817;52.798;27.544;2023-02-18T08:51:58;1004.5;;;6.7;85.5
61880;BME280;47817;52.798;27.544;2023-02-18T08:56:44;1004.6;;;6.7;84.5
61880;BME280;47817;52.798;27.544;2023-02-18T09:01:10;1004.6;;;6.7;83.9
61880;BME280;47817;52.798;27.544;2023-02-18T09:06:58;1004.5;;;6.8;83.3
61880;BME280;47817;52.798;27.544;2023-02-18T09:11:22;1004.6;;;6.9;82.4
61880;BME280;47817;52.798;27.544;2023-02-18T09:16:58;1004.6;;;6.8;81.3
61880;BME280;47817;52.798;27.544;2023-02-18T09:21:22;1004.6;;;6.8;81.3
61880;BME280;47817;52.798;27.544;2023-02-18T09:26:37;1004.7;;;6.7;80.9
61880;BME280;47817;52.798;27.544;2023-02-18T09:31:58;1004.8;;;6.6;80.8
61880;BME280;47817;52.798;27.544;2023-02-18T09:36:10;1004.7;;;6.6;80.3
61880;BME280;47817;52.798;27.544;2023-02-18T09:41:44;1004.8;;;6.6;80
61880;BME280;47817;52.798;27.544;2023-02-18T09:46:45;1004.7;;;6.7;79.1
61880;BME280;47817;52.798;27.544;2023-02-18T09:51:28;1004.9;;;6.8;77.8
61880;BME280;47817;52.798;27.544;2023-02-18T09:56:42;1004.8;;;6.9;77
61880;BME280;47817;52.798;27.544;2023-02-18T10:01:24;1004.8;;;7.1;76
61880;BME280;47817;52.798;27.544;2023-02-18T10:06:58;1004.9;;;7.1;74.3
61880;BME280;47817;52.798;27.544;2023-02-18T10:11:40;1004.8;;;7.1;73.6
61880;BME280;47817;52.798;27.544;2023-02-18T10:16:13;1004.8;;;7.1;72.6
61880;BME280;47817;52.798;27.544;2023-02-18T10:21:42;1004.7;;;7.2;71.9
61880;BME280;47817;52.798;27.544;2023-02-18T10:26:22;1004.8;;;7.2;70.9
61880;BME280;47817;52.798;27.544;2023-02-18T10:31:29;1004.7;;;7.2;70.5
61880;BME280;47817;52.798;27.544;2023-02-18T10:36:41;1004.8;;;7.2;69.7
61880;BME280;47817;52.798;27.544;2023-02-18T10:41:12;1004.8;;;7.3;69
61880;BME280;47817;52.798;27.544;2023-02-18T10:46:44;1004.7;;;7.2;68.8
61880;BME280;47817;52.798;27.544;2023-02-18T10:51:34;1004.9;;;7.2;68.5
61880;BME280;47817;52.798;27.544;2023-02-18T10:56:45;1004.8;;;7.2;68.1
61880;BME280;47817;52.798;27.544;2023-02-18T11:01:40;1005;;;7;68.5
61880;BME280;47817;52.798;27.544;2023-02-18T11:06:43;1004.9;;;6.9;69
61880;BME280;47817;52.798;27.544;2023-02-18T11:11:40;1004.8;;;6.9;69.3
61880;BME280;47817;52.798;27.544;2023-02-18T11:16:22;1004.8;;;6.9;69.4
61880;BME280;47817;52.798;27.544;2023-02-18T11:21:56;1004.8;;;7.1;69.3
61880;BME280;47817;52.798;27.544;2023-02-18T11:26:29;1004.8;;;7;69.5
61880;BME280;47817;52.798;27.544;2023-02-18T11:31:10;1004.7;;;6.9;70.3
61880;BME280;47817;52.798;27.544;2023-02-18T11:36:40;1004.8;;;6.9;70.7
61880;BME280;47817;52.798;27.544;2023-02-18T11:41:33;1004.9;;;6.8;70.9
61880;BME280;47817;52.798;27.544;2023-02-18T11:46:57;1004.9;;;6.8;71
61880;BME280;47817;52.798;27.544;2023-02-18T11:52:02;1005;;;6.8;71
61880;BME280;47817;52.798;27.544;2023-02-18T11:56:15;1005;;;6.8;71.3
61880;BME280;47817;52.798;27.544;2023-02-18T12:01:40;1005.1;;;6.8;71.5
61880;BME280;47817;52.798;27.544;2023-02-18T12:06:23;1005.2;;;6.6;71.9
61880;BME280;47817;52.798;27.544;2023-02-18T12:11:57;1005.2;;;6.4;72.6
61880;BME280;47817;52.798;27.544;2023-02-18T12:16:44;1005.2;;;6.4;72.7
61880;BME280;47817;52.798;27.544;2023-02-18T12:21:32;1005.2;;;6.4;72.3
61880;BME280;47817;52.798;27.544;2023-02-18T12:26:43;1005.4;;;6.4;71.3
61880;BME280;47817;52.798;27.544;2023-02-18T12:31:13;1005.4;;;6.4;70.8
61880;BME280;47817;52.798;27.544;2023-02-18T12:36:59;1005.5;;;6.5;70.3
61880;BME280;47817;52.798;27.544;2023-02-18T12:41:43;1005.7;;;6.4;70.4
61880;BME280;47817;52.798;27.544;2023-02-18T12:46:14;1006;;;6.1;75.3
61880;BME280;47817;52.798;27.544;2023-02-18T12:51:42;1005.9;;;5.5;80.5
61880;BME280;47817;52.798;27.544;2023-02-18T12:56:27;1005.9;;;5.4;82.2
61880;BME280;47817;52.798;27.544;2023-02-18T13:01:57;1005.9;;;5.6;82
61880;BME280;47817;52.798;27.544;2023-02-18T13:06:26;1005.9;;;5.7;82.5
61880;BME280;47817;52.798;27.544;2023-02-18T13:11:12;1005.9;;;5.8;81.7
61880;BME280;47817;52.798;27.544;2023-02-18T13:16:56;1005.9;;;5.8;81.6
61880;BME280;47817;52.798;27.544;2023-02-18T13:21:34;1005.9;;;5.9;81.5
61880;BME280;47817;52.798;27.544;2023-02-18T13:26:44;1006;;;6;81.2
61880;BME280;47817;52.798;27.544;2023-02-18T13:31:41;1006.1;;;5.9;81
61880;BME280;47817;52.798;27.544;2023-02-18T13:36:40;1006.1;;;5.9;81.4
61880;BME280;47817;52.798;27.544;2023-02-18T13:41:40;1006;;;5.9;81.3
61880;BME280;47817;52.798;27.544;2023-02-18T13:46:22;1006;;;6;80.5
61880;BME280;47817;52.798;27.544;2023-02-18T13:51:56;1006;;;6.1;80.3
61880;BME280;47817;52.798;27.544;2023-02-18T13:56:40;1006;;;6.1;79
61880;BME280;47817;52.798;27.544;2023-02-18T14:01:23;1005.9;;;6.2;79.2
61880;BME280;47817;52.798;27.544;2023-02-18T14:06:40;1006;;;6.3;78.6
61880;BME280;47817;52.798;27.544;2023-02-18T14:11:23;1006.2;;;6.2;75.7
61880;BME280;47817;52.798;27.544;2023-02-18T14:17:46;1006.2;;;6.2;73.9
61880;BME280;47817;52.798;27.544;2023-02-18T14:21:34;1006.3;;;6.2;73.1
61880;BME280;47817;52.798;27.544;2023-02-18T14:26:23;1006.2;;;6.2;72.4
61880;BME280;47817;52.798;27.544;2023-02-18T14:31:56;1006.2;;;6.2;72.1
61880;BME280;47817;52.798;27.544;2023-02-18T14:36:24;1006.2;;;6.2;71.4
61880;BME280;47817;52.798;27.544;2023-02-18T14:41:43;1006.3;;;6.2;70.8
61880;BME280;47817;52.798;27.544;2023-02-18T14:46:38;1006.2;;;6.2;70.7
61880;BME280;47817;52.798;27.544;2023-02-18T14:51:24;1006.2;;;6.2;70.9
61880;BME280;47817;52.798;27.544;2023-02-18T14:57:00;1006.2;;;6.1;70.9
61880;BME280;47817;52.798;27.544;2023-02-18T15:01:36;1006.2;;;6.1;71
61880;BME280;47817;52.798;27.544;2023-02-18T15:06:44;1006.1;;;6.1;71.3
61880;BME280;47817;52.798;27.544;2023-02-18T15:11:35;1006.1;;;6.1;71.1
61880;BME280;47817;52.798;27.544;2023-02-18T15:16:23;1006.2;;;6.2;70.7
61880;BME280;47817;52.798;27.544;2023-02-18T15:21:58;1006.2;;;6.1;70.3
61880;BME280;47817;52.798;27.544;2023-02-18T15:26:10;1006.3;;;6.1;69.5
61880;BME280;47817;52.798;27.544;2023-02-18T15:31:42;1006.3;;;6.1;69.2
61880;BME280;47817;52.798;27.544;2023-02-18T15:36:36;1006.3;;;6.2;69.3
61880;BME280;47817;52.798;27.544;2023-02-18T15:41:22;1006.3;;;6.2;69.2
61880;BME280;47817;52.798;27.544;2023-02-18T15:46:59;1006.3;;;6.2;69.2
61880;BME280;47817;52.798;27.544;2023-02-18T15:51:10;1006.4;;;6.2;69.1
61880;BME280;47817;52.798;27.544;2023-02-18T15:56:42;1006.3;;;6.2;69.1
61880;BME280;47817;52.798;27.544;2023-02-18T16:01:22;1006.3;;;6.3;69.3
61880;BME280;47817;52.798;27.544;2023-02-18T16:06:22;1006.4;;;6.2;69.2
61880;BME280;47817;52.798;27.544;2023-02-18T16:11:58;1006.5;;;6.2;69.1
61880;BME280;47817;52.798;27.544;2023-02-18T16:16:36;1006.6;;;6.2;68.8
61880;BME280;47817;52.798;27.544;2023-02-18T16:21:46;1006.6;;;6.2;68.7
61880;BME280;47817;52.798;27.544;2023-02-18T16:26:26;1006.7;;;6.2;68.4
61880;BME280;47817;52.798;27.544;2023-02-18T16:31:24;1006.6;;;6.2;68.3
61880;BME280;47817;52.798;27.544;2023-02-18T16:36:58;1006.8;;;6.2;68.1
61880;BME280;47817;52.798;27.544;2023-02-18T16:41:10;1006.8;;;6.2;68.1
61880;BME280;47817;52.798;27.544;2023-02-18T16:46:42;1006.8;;;6.2;68.1
61880;BME280;47817;52.798;27.544;2023-02-18T16:51:10;1006.7;;;6.1;68.3
61880;BME280;47817;52.798;27.544;2023-02-18T16:56:25;1006.7;;;6.1;68.3
61880;BME280;47817;52.798;27.544;2023-02-18T17:01:56;1006.8;;;6.1;68.2
61880;BME280;47817;52.798;27.544;2023-02-18T17:06:36;1006.8;;;6.1;68.2
61880;BME280;47817;52.798;27.544;2023-02-18T17:11:44;1006.8;;;6.1;68.4
61880;BME280;47817;52.798;27.544;2023-02-18T17:16:22;1006.8;;;6.1;68.6
61880;BME280;47817;52.798;27.544;2023-02-18T17:21:22;1006.8;;;6.1;68.5
61880;BME280;47817;52.798;27.544;2023-02-18T17:27:00;1006.7;;;6.1;68.7
61880;BME280;47817;52.798;27.544;2023-02-18T17:31:11;1006.7;;;6.1;68.7
61880;BME280;47817;52.798;27.544;2023-02-18T17:36:44;1006.7;;;6;68.4
61880;BME280;47817;52.798;27.544;2023-02-18T17:41:22;1006.7;;;6.1;68.1
61880;BME280;47817;52.798;27.544;2023-02-18T17:46:24;1006.7;;;6.1;67.9
61880;BME280;47817;52.798;27.544;2023-02-18T17:51:58;1006.7;;;6.1;67.3
61880;BME280;47817;52.798;27.544;2023-02-18T17:56:10;1006.9;;;6.1;66.7
61880;BME280;47817;52.798;27.544;2023-02-18T18:01:28;1006.9;;;6;66
61880;BME280;47817;52.798;27.544;2023-02-18T18:06:34;1006.8;;;6.1;65.6
61880;BME280;47817;52.798;27.544;2023-02-18T18:11:11;1006.8;;;6.1;65.4
61880;BME280;47817;52.798;27.544;2023-02-18T18:16:56;1006.8;;;6.1;65.8
61880;BME280;47817;52.798;27.544;2023-02-18T18:21:58;1006.8;;;6;65.6
61880;BME280;47817;52.798;27.544;2023-02-18T18:26:44;1006.9;;;5.9;65.5
61880;BME280;47817;52.798;27.544;2023-02-18T18:31:48;1006.8;;;5.9;65.5
61880;BME280;47817;52.798;27.544;2023-02-18T18:36:28;1006.9;;;5.9;65.2
61880;BME280;47817;52.798;27.544;2023-02-18T18:41:32;1006.8;;;5.9;65.1
61880;BME280;47817;52.798;27.544;2023-02-18T18:46:10;1006.8;;;6;65.2
61880;BME280;47817;52.798;27.544;2023-02-18T18:52:00;1006.8;;;6;66.4
61880;BME280;47817;52.798;27.544;2023-02-18T18:56:10;1006.8;;;5.9;67
61880;BME280;47817;52.798;27.544;2023-02-18T19:01:22;1006.9;;;5.8;66.9
61880;BME280;47817;52.798;27.544;2023-02-18T19:06:28;1007;;;5.7;66.9
61880;BME280;47817;52.798;27.544;2023-02-18T19:11:10;1007;;;5.7;67.3
61880;BME280;47817;52.798;27.544;2023-02-18T19:16:58;1007.1;;;5.7;67.4
61880;BME280;47817;52.798;27.544;2023-02-18T19:21:38;1007.1;;;5.7;66.9
61880;BME280;47817;52.798;27.544;2023-02-18T19:26:22;1007.1;;;5.6;66.9
61880;BME280;47817;52.798;27.544;2023-02-18T19:31:30;1007.1;;;5.5;67.1
61880;BME280;47817;52.798;27.544;2023-02-18T19:36:24;1007.1;;;5.3;66.6
61880;BME280;47817;52.798;27.544;2023-02-18T19:41:56;1007.1;;;5.2;66.7
61880;BME280;47817;52.798;27.544;2023-02-18T19:46:52;1007.1;;;5.1;66.9
61880;BME280;47817;52.798;27.544;2023-02-18T19:51:10;1007.1;;;5;67
61880;BME280;47817;52.798;27.544;2023-02-18T19:56:28;1007.2;;;5;67.1
61880;BME280;47817;52.798;27.544;2023-02-18T20:01:10;1007.2;;;4.9;67.2
61880;BME280;47817;52.798;27.544;2023-02-18T20:06:56;1007.3;;;4.9;67.3
61880;BME280;47817;52.798;27.544;2023-02-18T20:11:50;1007.4;;;4.8;67.2
61880;BME280;47817;52.798;27.544;2023-02-18T20:16:18;1007.4;;;4.8;67.3
61880;BME280;47817;52.798;27.544;2023-02-18T20:21:22;1007.5;;;4.7;67.4
61880;BME280;47817;52.798;27.544;2023-02-18T20:26:11;1007.5;;;4.7;67.2
61880;BME280;47817;52.798;27.544;2023-02-18T20:31:58;1007.5;;;4.6;67.6
61880;BME280;47817;52.798;27.544;2023-02-18T20:36:50;1007.6;;;4.5;68
61880;BME280;47817;52.798;27.544;2023-02-18T20:41:22;1007.6;;;4.5;67.8
61880;BME280;47817;52.798;27.544;2023-02-18T20:46:11;1007.6;;;4.5;67.9
61880;BME280;47817;52.798;27.544;2023-02-18T20:51:11;1007.6;;;4.4;68.3
61880;BME280;47817;52.798;27.544;2023-02-18T20:56:58;1007.8;;;4.3;68.8
61880;BME280;47817;52.798;27.544;2023-02-18T21:01:48;1007.8;;;4.2;68.9
61880;BME280;47817;52.798;27.544;2023-02-18T21:06:10;1007.8;;;4.2;68.6
61880;BME280;47817;52.798;27.544;2023-02-18T21:11:32;1007.9;;;4.2;68.2
61880;BME280;47817;52.798;27.544;2023-02-18T21:16:10;1007.9;;;4.2;67.5
61880;BME280;47817;52.798;27.544;2023-02-18T21:22:00;1008;;;4.2;67.3
61880;BME280;47817;52.798;27.544;2023-02-18T21:26:48;1008.1;;;4.1;67.6
61880;BME280;47817;52.798;27.544;2023-02-18T21:31:30;1008.2;;;4;67.9
61880;BME280;47817;52.798;27.544;2023-02-18T21:36:22;1008.1;;;4;68.5
61880;BME280;47817;52.798;27.544;2023-02-18T21:41:10;1008.1;;;4.1;68.7
61880;BME280;47817;52.798;27.544;2023-02-18T21:46:44;1008.2;;;4.2;68.8
61880;BME280;47817;52.798;27.544;2023-02-18T21:51:50;1008.2;;;4.3;69
61880;BME280;47817;52.798;27.544;2023-02-18T21:56:10;1008.3;;;4.3;69.1
61880;BME280;47817;52.798;27.544;2023-02-18T22:01:28;1008.3;;;4.3;68.3
61880;BME280;47817;52.798;27.544;2023-02-18T22:06:22;1008.4;;;4.4;67.5
61880;BME280;47817;52.798;27.544;2023-02-18T22:11:56;1008.5;;;4.4;67.4
61880;BME280;47817;52.798;27.544;2023-02-18T22:16:48;1008.5;;;4.5;67.2
61880;BME280;47817;52.798;27.544;2023-02-18T22:21:10;1008.6;;;4.5;66.9
61880;BME280;47817;52.798;27.544;2023-02-18T22:26:28;1008.7;;;4.5;66.6
61880;BME280;47817;52.798;27.544;2023-02-18T22:31:30;1008.8;;;4.5;66
61880;BME280;47817;52.798;27.544;2023-02-18T22:36:52;1008.8;;;4.5;65.3
61880;BME280;47817;52.798;27.544;2023-02-18T22:41:50;1008.8;;;4.5;64.7
61880;BME280;47817;52.798;27.544;2023-02-18T22:47:00;1008.8;;;4.5;64.5
61880;BME280;47817;52.798;27.544;2023-02-18T22:51:31;1008.9;;;4.5;64.1
61880;BME280;47817;52.798;27.544;2023-02-18T22:56:22;1009;;;4.5;63.8
61880;BME280;47817;52.798;27.544;2023-02-18T23:01:58;1008.9;;;4.5;63.7
61880;BME280;47817;52.798;27.544;2023-02-18T23:06:58;1008.9;;;4.5;64
61880;BME280;47817;52.798;27.544;2023-02-18T23:11:53;1009;;;4.5;63.9
61880;BME280;47817;52.798;27.544;2023-02-18T23:16:22;1009;;;4.5;63.6
61880;BME280;47817;52.798;27.544;2023-02-18T23:21:30;1009;;;4.5;63.7
61880;BME280;47817;52.798;27.544;2023-02-18T23:27:00;1009;;;4.5;63.7
61880;BME280;47817;52.798;27.544;2023-02-18T23:31:50;1009.1;;;4.5;63.5
61880;BME280;47817;52.798;27.544;2023-02-18T23:36:58;1009;;;4.4;63.5
61880;BME280;47817;52.798;27.544;2023-02-18T23:41:10;1009;;;4.4;63.8
61880;BME280;47817;52.798;27.544;2023-02-18T23:46:10;1009;;;4.4;63.9
61880;BME280;47817;52.798;27.544;2023-02-18T23:51:32;1009.1;;;4.4;64
61880;BME280;47817;52.798;27.544;2023-02-18T23:56:34;1009.2;;;4.4;64
